createdAt,value
2023-10-09T00:02:21.807Z,67.52
2023-10-09T00:05:04.720Z,67.26
2023-10-09T00:07:42.631Z,67.53
2023-10-09T00:10:21.889Z,67.45
2023-10-09T00:12:56.584Z,67.13
2023-10-09T00:15:36.373Z,67.47
2023-10-09T00:18:15.348Z,67.90
2023-10-09T00:20:56.772Z,67.62
2023-10-09T00:23:36.165Z,67.84
2023-10-09T00:26:17.908Z,67.85
2023-10-09T00:28:58.716Z,67.90
2023-10-09T00:31:34.958Z,67.93
2023-10-09T00:34:22.291Z,67.83
2023-10-09T00:37:06.789Z,68.22
2023-10-09T00:39:47.162Z,68.27
2023-10-09T00:42:30.169Z,67.94
2023-10-09T00:45:10.451Z,67.90
2023-10-09T00:47:50.669Z,67.77
2023-10-09T00:50:27.243Z,68.06
2023-10-09T00:53:06.035Z,68.18
2023-10-09T00:55:53.980Z,68.24
2023-10-09T00:58:33.233Z,68.56
2023-10-09T01:01:18.093Z,68.51
2023-10-09T01:04:00.680Z,68.42
2023-10-09T01:07:13.638Z,68.59
2023-10-09T01:10:01.243Z,68.63
2023-10-09T01:12:43.619Z,68.58
2023-10-09T01:15:37.355Z,68.78
2023-10-09T01:18:15.161Z,68.49
2023-10-09T01:20:54.698Z,68.44
2023-10-09T01:23:31.979Z,68.38
2023-10-09T01:26:13.119Z,68.37
2023-10-09T01:29:00.513Z,68.36
2023-10-09T01:31:45.721Z,68.49
2023-10-09T01:34:26.213Z,68.20
2023-10-09T01:37:07.522Z,68.31
2023-10-09T01:39:44.740Z,68.18
2023-10-09T01:42:29.510Z,68.59
2023-10-09T01:45:13.285Z,68.68
2023-10-09T01:47:56.781Z,68.54
2023-10-09T01:50:33.911Z,68.47
2023-10-09T01:53:09.599Z,68.69
2023-10-09T01:55:48.259Z,68.54
2023-10-09T01:58:29.094Z,68.50
2023-10-09T02:01:08.990Z,68.84
2023-10-09T02:03:45.194Z,68.87
2023-10-09T02:06:29.271Z,69.03
2023-10-09T02:09:08.370Z,69.25
2023-10-09T02:11:46.816Z,69.07
2023-10-09T02:14:26.169Z,69.24
2023-10-09T02:17:10.070Z,68.99
2023-10-09T02:19:50.169Z,68.94
2023-10-09T02:22:27.935Z,69.27
2023-10-09T02:25:10.156Z,69.07
2023-10-09T02:27:55.200Z,69.14
2023-10-09T02:30:32.997Z,69.50
2023-10-09T02:33:11.282Z,69.52
2023-10-09T02:35:52.984Z,69.36
2023-10-09T02:38:37.721Z,69.53
2023-10-09T02:41:22.790Z,69.33
2023-10-09T02:43:59.869Z,69.55
2023-10-09T02:46:37.032Z,69.33
2023-10-09T02:49:18.213Z,69.59
2023-10-09T02:51:57.100Z,69.71
2023-10-09T02:54:43.307Z,69.51
2023-10-09T02:57:25.184Z,69.75
2023-10-09T03:00:05.095Z,69.66
2023-10-09T03:02:41.713Z,69.71
2023-10-09T03:05:18.957Z,69.84
2023-10-09T03:07:56.493Z,70.00
2023-10-09T03:10:37.716Z,69.58
2023-10-09T03:13:21.021Z,69.79
2023-10-09T03:15:57.603Z,70.04
2023-10-09T03:18:36.728Z,69.86
2023-10-09T03:21:17.089Z,69.76
2023-10-09T03:23:54.158Z,69.96
2023-10-09T03:26:33.327Z,69.88
2023-10-09T03:29:14.986Z,70.15
2023-10-09T03:31:52.006Z,69.86
2023-10-09T03:34:28.037Z,69.72
2023-10-09T03:37:13.615Z,69.80
2023-10-09T03:39:49.067Z,69.87
2023-10-09T03:42:27.378Z,69.74
2023-10-09T03:45:03.206Z,69.83
2023-10-09T03:47:39.100Z,69.85
2023-10-09T03:50:28.100Z,70.07
2023-10-09T03:53:03.936Z,69.89
2023-10-09T03:55:43.395Z,70.03
2023-10-09T03:58:22.001Z,70.20
2023-10-09T04:00:58.650Z,70.06
2023-10-09T04:03:37.236Z,69.98
2023-10-09T04:06:15.236Z,70.32
2023-10-09T04:08:53.775Z,70.38
2023-10-09T04:11:29.739Z,70.03
2023-10-09T04:14:12.669Z,70.02
2023-10-09T04:16:55.208Z,70.26
2023-10-09T04:19:30.390Z,70.02
2023-10-09T04:22:09.828Z,70.55
2023-10-09T04:24:46.588Z,70.72
2023-10-09T04:27:30.020Z,70.76
2023-10-09T04:30:09.281Z,70.82
2023-10-09T04:32:46.713Z,70.72
2023-10-09T04:35:25.751Z,70.60
2023-10-09T04:38:07.216Z,70.49
2023-10-09T04:40:55.044Z,70.66
2023-10-09T04:43:31.164Z,70.71
2023-10-09T04:46:14.715Z,70.70
2023-10-09T04:48:54.548Z,70.63
2023-10-09T04:51:38.284Z,70.69
2023-10-09T04:54:34.932Z,70.92
2023-10-09T04:57:19.709Z,71.02
2023-10-09T04:59:54.557Z,71.27
2023-10-09T05:02:38.290Z,71.38
2023-10-09T05:05:37.190Z,71.50
2023-10-09T05:08:21.540Z,71.85
2023-10-09T05:11:18.916Z,71.92
2023-10-09T05:14:13.472Z,71.91
2023-10-09T05:16:57.014Z,71.74
2023-10-09T05:19:43.844Z,71.89
2023-10-09T05:22:31.524Z,71.90
2023-10-09T05:25:31.797Z,71.87
2023-10-09T05:28:27.931Z,71.83
2023-10-09T05:31:10.698Z,71.88
2023-10-09T05:33:47.372Z,71.74
2023-10-09T05:36:37.233Z,71.82
2023-10-09T05:39:50.138Z,71.72
2023-10-09T05:42:44.896Z,71.78
2023-10-09T05:45:39.159Z,71.87
2023-10-09T05:48:42.383Z,71.99
2023-10-09T05:51:32.680Z,71.90
2023-10-09T05:54:25.361Z,71.73
2023-10-09T05:57:23.058Z,71.76
2023-10-09T06:00:17.563Z,71.85
2023-10-09T06:03:13.250Z,71.95
2023-10-09T06:06:03.646Z,72.10
2023-10-09T06:09:05.391Z,71.94
2023-10-09T06:11:45.171Z,72.03
2023-10-09T06:14:47.986Z,71.97
2023-10-09T06:17:26.292Z,71.72
2023-10-09T06:20:22.914Z,71.65
2023-10-09T06:23:17.336Z,71.70
2023-10-09T06:25:53.777Z,72.03
2023-10-09T06:28:35.624Z,72.18
2023-10-09T06:31:42.641Z,72.36
2023-10-09T06:34:22.792Z,72.22
2023-10-09T06:37:05.535Z,71.90
2023-10-09T06:40:08.277Z,72.09
2023-10-09T06:42:53.490Z,72.14
2023-10-09T06:45:47.422Z,72.24
2023-10-09T06:48:49.852Z,72.21
2023-10-09T06:51:45.687Z,72.14
2023-10-09T06:54:21.186Z,72.35
2023-10-09T06:57:38.882Z,72.48
2023-10-09T07:00:38.138Z,72.23
2023-10-09T07:03:14.814Z,72.20
2023-10-09T07:06:07.391Z,72.22
2023-10-09T07:08:59.920Z,72.27
2023-10-09T07:11:50.407Z,72.09
2023-10-09T07:14:46.735Z,71.81
2023-10-09T07:17:25.485Z,71.88
2023-10-09T07:20:15.527Z,71.72
2023-10-09T07:22:58.563Z,71.30
2023-10-09T07:25:56.869Z,71.63
2023-10-09T07:28:45.292Z,71.57
2023-10-09T07:31:32.172Z,71.22
2023-10-09T07:34:27.413Z,71.07
2023-10-09T07:37:05.949Z,71.08
2023-10-09T07:39:39.817Z,70.82
2023-10-09T07:42:28.694Z,70.54
2023-10-09T07:45:34.619Z,70.30
2023-10-09T07:48:17.788Z,70.24
2023-10-09T07:50:59.414Z,70.39
2023-10-09T07:53:44.768Z,69.83
2023-10-09T07:56:24.671Z,69.78
2023-10-09T07:59:01.951Z,69.99
2023-10-09T08:01:37.626Z,69.96
2023-10-09T08:04:13.512Z,69.88
2023-10-09T08:07:04.550Z,69.88
2023-10-09T08:10:14.164Z,70.00
2023-10-09T08:13:22.222Z,69.84
2023-10-09T08:16:06.787Z,69.39
2023-10-09T08:18:47.012Z,69.47
2023-10-09T08:21:42.524Z,69.59
2023-10-09T08:24:34.903Z,69.67
2023-10-09T08:27:39.158Z,69.48
2023-10-09T08:30:30.703Z,69.77
2023-10-09T08:36:33.469Z,69.78
2023-10-09T08:39:19.809Z,69.83
2023-10-09T08:41:55.432Z,69.86
2023-10-09T08:44:33.884Z,69.86
2023-10-09T08:47:18.625Z,70.02
2023-10-09T08:49:58.933Z,70.16
2023-10-09T08:52:37.621Z,69.99
2023-10-09T08:55:19.052Z,69.87
2023-10-09T08:57:58.023Z,69.74
2023-10-09T09:00:35.177Z,69.59
2023-10-09T09:03:14.765Z,69.50
2023-10-09T09:06:03.248Z,69.25
2023-10-09T09:08:43.505Z,69.09
2023-10-09T09:11:31.385Z,69.14
2023-10-09T09:14:20.050Z,69.17
2023-10-09T09:17:06.475Z,68.97
2023-10-09T09:19:42.146Z,69.05
2023-10-09T09:22:21.501Z,69.12
2023-10-09T09:25:10.875Z,68.96
2023-10-09T09:27:54.369Z,68.89
2023-10-09T09:30:35.983Z,68.59
2023-10-09T09:33:28.836Z,68.39
2023-10-09T09:36:09.357Z,68.34
2023-10-09T09:38:50.928Z,68.32
2023-10-09T09:41:28.546Z,68.00
2023-10-09T09:44:08.217Z,67.91
2023-10-09T09:46:46.327Z,67.53
2023-10-09T09:49:23.072Z,67.64
2023-10-09T09:51:58.715Z,67.87
2023-10-09T09:54:38.606Z,67.74
2023-10-09T09:57:27.889Z,68.05
2023-10-09T10:00:07.147Z,67.87
2023-10-09T10:02:49.705Z,67.69
2023-10-09T10:05:31.612Z,67.71
2023-10-09T10:08:15.899Z,67.54
2023-10-09T10:10:54.718Z,67.76
2023-10-09T10:14:03.497Z,67.61
2023-10-09T10:16:59.850Z,67.41
2023-10-09T10:20:33.056Z,67.37
2023-10-09T10:23:27.246Z,67.36
2023-10-09T10:26:28.123Z,67.02
2023-10-09T10:29:25.887Z,67.08
2023-10-09T10:32:09.001Z,67.36
2023-10-09T10:35:08.635Z,67.57
2023-10-09T10:37:53.277Z,67.46
2023-10-09T10:40:43.764Z,67.54
2023-10-09T10:43:34.160Z,67.10
2023-10-09T10:46:16.858Z,66.48
2023-10-09T10:49:01.496Z,65.73
2023-10-09T10:51:41.611Z,65.91
2023-10-09T10:54:42.165Z,66.01
2023-10-09T10:57:54.581Z,65.66
2023-10-09T11:00:52.839Z,65.22
2023-10-09T11:03:38.124Z,65.01
2023-10-09T11:06:18.481Z,65.40
2023-10-09T11:08:59.057Z,65.33
2023-10-09T11:11:43.074Z,65.21
2023-10-09T11:14:25.111Z,64.92
2023-10-09T11:17:05.034Z,64.51
2023-10-09T11:19:45.464Z,64.68
2023-10-09T11:22:31.933Z,65.04
2023-10-09T11:25:14.678Z,65.03
2023-10-09T11:27:56.972Z,64.96
2023-10-09T11:30:40.643Z,64.30
2023-10-09T11:33:18.054Z,64.38
2023-10-09T11:36:03.101Z,64.60
2023-10-09T11:38:49.096Z,64.24
2023-10-09T11:41:26.386Z,63.66
2023-10-09T11:44:06.639Z,63.77
2023-10-09T11:46:50.670Z,63.96
2023-10-09T11:49:36.642Z,63.83
2023-10-09T11:52:26.159Z,63.36
2023-10-09T11:55:02.501Z,63.41
2023-10-09T11:57:37.717Z,62.97
2023-10-09T12:00:29.932Z,62.46
2023-10-09T12:03:08.700Z,62.69
2023-10-09T12:05:46.391Z,63.02
2023-10-09T12:08:24.672Z,63.28
2023-10-09T12:11:08.481Z,63.42
2023-10-09T12:13:45.750Z,62.60
2023-10-09T12:16:30.497Z,62.30
2023-10-09T12:19:11.466Z,62.17
2023-10-09T12:21:48.260Z,62.46
2023-10-09T12:24:26.174Z,62.40
2023-10-09T12:27:11.742Z,62.56
2023-10-09T12:29:50.373Z,62.12
2023-10-09T12:32:27.909Z,62.29
2023-10-09T12:35:03.464Z,61.79
2023-10-09T12:37:39.411Z,61.70
2023-10-09T12:40:31.043Z,61.47
2023-10-09T12:43:19.319Z,61.53
2023-10-09T12:45:59.196Z,61.31
2023-10-09T12:48:37.533Z,61.52
2023-10-09T12:51:18.610Z,61.83
2023-10-09T12:53:59.787Z,62.28
2023-10-09T12:56:41.417Z,61.58
2023-10-09T12:59:18.919Z,61.94
2023-10-09T13:01:59.498Z,62.14
2023-10-09T13:04:41.797Z,61.96
2023-10-09T13:07:23.571Z,62.21
2023-10-09T13:10:19.959Z,62.53
2023-10-09T13:12:59.217Z,62.36
2023-10-09T13:15:44.705Z,62.17
2023-10-09T13:18:18.831Z,62.23
2023-10-09T13:20:56.418Z,62.36
2023-10-09T13:23:40.002Z,62.52
2023-10-09T13:26:33.184Z,62.57
2023-10-09T13:29:11.581Z,62.84
2023-10-09T13:31:49.522Z,62.30
2023-10-09T13:34:30.137Z,62.03
2023-10-09T13:37:13.818Z,61.73
2023-10-09T13:39:55.615Z,62.12
2023-10-09T13:42:31.063Z,62.39
2023-10-09T13:45:17.140Z,62.38
2023-10-09T13:47:52.157Z,62.39
2023-10-09T13:50:34.486Z,62.48
2023-10-09T13:53:14.505Z,62.41
2023-10-09T13:55:51.753Z,62.67
2023-10-09T13:58:28.770Z,62.59
2023-10-09T14:01:12.392Z,62.46
2023-10-09T14:03:53.343Z,62.22
2023-10-09T14:06:36.874Z,62.36
2023-10-09T14:09:29.860Z,62.41
2023-10-09T14:12:12.498Z,62.46
2023-10-09T14:14:50.860Z,62.20
2023-10-09T14:17:30.204Z,61.76
2023-10-09T14:20:21.081Z,61.63
2023-10-09T14:23:08.777Z,61.71
2023-10-09T14:25:46.039Z,61.70
2023-10-09T14:28:32.439Z,61.81
2023-10-09T14:31:13.319Z,61.89
2023-10-09T14:33:53.335Z,61.45
2023-10-09T14:36:35.672Z,61.25
2023-10-09T14:39:14.614Z,61.16
2023-10-09T14:41:49.421Z,61.01
2023-10-09T14:44:25.907Z,60.45
2023-10-09T14:47:06.780Z,60.60
2023-10-09T14:49:51.097Z,60.72
2023-10-09T14:52:29.666Z,61.21
2023-10-09T14:55:06.697Z,61.23
2023-10-09T14:57:43.969Z,61.12
2023-10-09T15:00:25.119Z,61.30
2023-10-09T15:03:01.582Z,61.19
2023-10-09T15:05:45.512Z,61.04
2023-10-09T15:08:19.765Z,61.19
2023-10-09T15:10:58.926Z,61.36
2023-10-09T15:13:35.122Z,61.32
2023-10-09T15:16:12.695Z,61.46
2023-10-09T15:18:52.192Z,61.71
2023-10-09T15:21:28.733Z,61.56
2023-10-09T15:24:07.160Z,61.62
2023-10-09T15:26:42.508Z,61.62
2023-10-09T15:29:21.124Z,61.78
2023-10-09T15:32:06.156Z,61.82
2023-10-09T15:34:42.907Z,61.87
2023-10-09T15:37:18.952Z,62.11
2023-10-09T15:39:57.850Z,62.32
2023-10-09T15:42:38.919Z,62.65
2023-10-09T15:45:19.319Z,62.67
2023-10-09T15:47:54.452Z,62.66
2023-10-09T15:50:31.211Z,62.74
2023-10-09T15:53:08.904Z,62.67
2023-10-09T15:55:46.976Z,62.81
2023-10-09T15:58:23.783Z,63.08
2023-10-09T16:01:02.276Z,63.34
2023-10-09T16:03:36.133Z,63.37
2023-10-09T16:06:13.702Z,63.52
2023-10-09T16:08:51.749Z,63.70
2023-10-09T16:11:28.598Z,63.87
2023-10-09T16:14:07.781Z,63.83
2023-10-09T16:16:46.148Z,63.95
2023-10-09T16:19:22.245Z,64.23
2023-10-09T16:21:59.781Z,64.48
2023-10-09T16:24:39.625Z,64.52
2023-10-09T16:27:25.051Z,64.67
2023-10-09T16:30:06.889Z,64.93
2023-10-09T16:32:43.502Z,65.28
2023-10-09T16:35:19.957Z,65.46
2023-10-09T16:37:57.737Z,65.47
2023-10-09T16:40:33.099Z,65.56
2023-10-09T16:43:15.312Z,65.61
2023-10-09T16:45:52.718Z,66.09
2023-10-09T16:48:30.740Z,66.16
2023-10-09T16:51:11.879Z,66.30
2023-10-09T16:53:48.181Z,66.22
2023-10-09T16:56:25.216Z,66.52
2023-10-09T16:59:09.812Z,66.55
2023-10-09T17:01:46.806Z,66.81
2023-10-09T17:04:24.895Z,66.74
2023-10-09T17:07:00.493Z,66.83
2023-10-09T17:09:37.361Z,67.15
2023-10-09T17:12:18.844Z,67.34
2023-10-09T17:15:03.105Z,67.28
2023-10-09T17:17:41.262Z,67.46
2023-10-09T17:20:20.179Z,67.67
2023-10-09T17:22:55.398Z,68.27
2023-10-09T17:25:33.054Z,68.26
2023-10-09T17:28:11.603Z,68.46
2023-10-09T17:30:51.621Z,68.49
2023-10-09T17:33:27.097Z,69.01
2023-10-09T17:36:07.502Z,69.24
2023-10-09T17:38:43.720Z,69.52
2023-10-09T17:41:19.433Z,69.61
2023-10-09T17:43:56.380Z,69.92
2023-10-09T17:46:32.499Z,69.77
2023-10-09T17:49:10.842Z,70.17
2023-10-09T17:51:46.522Z,70.25
2023-10-09T17:54:25.789Z,70.20
2023-10-09T17:57:01.640Z,70.26
2023-10-09T17:59:39.385Z,70.21
2023-10-09T18:02:20.525Z,70.51
2023-10-09T18:04:55.837Z,70.87
2023-10-09T18:07:33.293Z,70.77
2023-10-09T18:10:12.553Z,70.99
2023-10-09T18:12:52.344Z,71.50
2023-10-09T18:15:29.273Z,71.36
2023-10-09T18:18:11.954Z,71.37
2023-10-09T18:20:51.122Z,71.57
2023-10-09T18:23:31.286Z,71.86
2023-10-09T18:26:08.939Z,71.69
2023-10-09T18:28:50.609Z,71.92
2023-10-09T18:31:44.488Z,72.11
2023-10-09T18:34:23.684Z,72.10
2023-10-09T18:37:01.094Z,71.97
2023-10-09T18:39:40.853Z,72.13
2023-10-09T18:42:21.299Z,72.29
2023-10-09T18:44:56.412Z,72.40
2023-10-09T18:47:39.080Z,73.03
2023-10-09T18:50:18.542Z,72.77
2023-10-09T18:52:54.298Z,72.39
2023-10-09T18:55:31.262Z,72.68
2023-10-09T18:58:07.281Z,72.76
2023-10-09T19:00:51.730Z,72.72
2023-10-09T19:03:33.437Z,72.84
2023-10-09T19:06:12.013Z,72.90
2023-10-09T19:08:51.944Z,72.98
2023-10-09T19:11:29.192Z,73.17
2023-10-09T19:14:10.296Z,73.01
2023-10-09T19:16:48.548Z,73.13
2023-10-09T19:19:26.732Z,73.16
2023-10-09T19:22:09.558Z,73.08
2023-10-09T19:24:49.454Z,73.06
2023-10-09T19:27:28.086Z,73.29
2023-10-09T19:30:10.846Z,73.32
2023-10-09T19:32:48.405Z,73.38
2023-10-09T19:35:30.140Z,73.35
2023-10-09T19:38:05.123Z,73.32
2023-10-09T19:40:41.746Z,73.41
2023-10-09T19:43:17.445Z,73.89
2023-10-09T19:45:54.991Z,74.02
2023-10-09T19:48:34.929Z,73.85
2023-10-09T19:51:14.306Z,73.91
2023-10-09T19:53:54.082Z,73.87
2023-10-09T19:56:29.920Z,73.64
2023-10-09T19:59:04.979Z,74.01
2023-10-09T20:01:42.740Z,73.92
2023-10-09T20:04:19.182Z,74.11
2023-10-09T20:06:56.134Z,74.24
2023-10-09T20:09:32.637Z,74.16
2023-10-09T20:12:10.876Z,74.46
2023-10-09T20:14:46.361Z,74.08
2023-10-09T20:17:41.822Z,74.16
2023-10-09T20:20:17.648Z,74.22
2023-10-09T20:22:56.981Z,74.50
2023-10-09T20:25:34.097Z,74.40
2023-10-09T20:28:13.022Z,74.26
2023-10-09T20:30:50.334Z,74.29
2023-10-09T20:33:29.820Z,74.36
2023-10-09T20:36:15.018Z,74.45
2023-10-09T20:38:59.062Z,74.51
2023-10-09T20:41:33.940Z,74.45
2023-10-09T20:44:11.079Z,74.62
2023-10-09T20:46:50.600Z,74.79
2023-10-09T20:49:26.504Z,75.13
2023-10-09T20:52:02.324Z,74.86
2023-10-09T20:54:38.945Z,75.02
2023-10-09T20:57:15.834Z,74.99
2023-10-09T20:59:52.483Z,74.91
2023-10-09T21:02:29.239Z,75.11
2023-10-09T21:05:04.363Z,75.29
2023-10-09T21:07:40.743Z,75.23
2023-10-09T21:10:19.941Z,75.31
2023-10-09T21:13:00.643Z,75.27
2023-10-09T21:15:37.382Z,75.50
2023-10-09T21:18:15.562Z,75.42
2023-10-09T21:20:53.205Z,75.79
2023-10-09T21:23:33.612Z,75.79
2023-10-09T21:26:19.922Z,75.93
2023-10-09T21:29:00.849Z,76.53
2023-10-09T21:31:40.804Z,76.79
2023-10-09T21:34:16.358Z,76.95
2023-10-09T21:36:55.250Z,76.96
2023-10-09T21:39:34.252Z,77.29
2023-10-09T21:42:11.249Z,76.87
2023-10-09T21:44:49.588Z,77.10
2023-10-09T21:47:27.243Z,77.05
2023-10-09T21:50:05.916Z,77.06
2023-10-09T21:52:45.520Z,76.93
2023-10-09T21:55:24.296Z,76.84
2023-10-09T21:58:02.943Z,76.94
2023-10-09T22:00:39.587Z,77.17
2023-10-09T22:03:17.112Z,77.33
2023-10-09T22:05:53.785Z,77.19
2023-10-09T22:08:29.678Z,77.09
2023-10-09T22:11:09.232Z,77.14
2023-10-09T22:13:46.998Z,77.05
2023-10-09T22:16:26.753Z,77.10
2023-10-09T22:19:14.090Z,77.23
2023-10-09T22:21:57.831Z,77.07
2023-10-09T22:24:36.926Z,77.10
2023-10-09T22:27:25.426Z,77.20
2023-10-09T22:30:06.878Z,77.38
2023-10-09T22:32:44.380Z,77.30
2023-10-09T22:35:24.276Z,77.33
2023-10-09T22:38:01.057Z,77.40
2023-10-09T22:40:39.835Z,77.62
2023-10-09T22:43:16.329Z,77.32
2023-10-09T22:45:54.108Z,77.36
2023-10-09T22:48:29.863Z,77.58
2023-10-09T22:51:11.998Z,77.34
2023-10-09T22:53:50.037Z,77.30
2023-10-09T22:56:28.819Z,77.17
2023-10-09T22:59:22.240Z,77.43
2023-10-09T23:02:01.416Z,77.06
2023-10-09T23:04:53.984Z,76.88
2023-10-09T23:07:32.870Z,77.00
2023-10-09T23:10:17.852Z,77.34
2023-10-09T23:12:54.356Z,77.23
2023-10-09T23:15:34.613Z,77.19
2023-10-09T23:18:32.510Z,77.27
2023-10-09T23:21:25.280Z,77.22
2023-10-09T23:24:10.128Z,77.34
2023-10-09T23:26:56.760Z,77.32
2023-10-09T23:29:35.079Z,77.52
2023-10-09T23:32:34.068Z,77.52
2023-10-09T23:35:11.539Z,77.52
2023-10-09T23:38:07.762Z,77.60
2023-10-09T23:40:47.085Z,77.62
2023-10-09T23:43:29.291Z,77.43
2023-10-09T23:46:03.620Z,77.57
2023-10-09T23:48:39.823Z,77.70
2023-10-09T23:51:20.433Z,77.78
2023-10-09T23:54:02.933Z,77.79
2023-10-09T23:56:57.516Z,77.73
2023-10-09T23:59:41.487Z,77.94
